sensor_id;sensor_type;location;lat;lon;timestamp;temperature;humidity
69895;DHT22;57172;52.034;5.090;2023-07-30T00:00:51;17.30;77.90
69895;DHT22;57172;52.034;5.090;2023-07-30T00:03:18;17.30;77.90
69895;DHT22;57172;52.034;5.090;2023-07-30T00:05:54;17.20;78.00
69895;DHT22;57172;52.034;5.090;2023-07-30T00:08:22;17.20;78.20
69895;DHT22;57172;52.034;5.090;2023-07-30T00:10:49;17.20;78.40
69895;DHT22;57172;52.034;5.090;2023-07-30T00:13:16;17.10;78.00
69895;DHT22;57172;52.034;5.090;2023-07-30T00:15:46;17.10;78.10
69895;DHT22;57172;52.034;5.090;2023-07-30T00:18:14;17.10;78.10
69895;DHT22;57172;52.034;5.090;2023-07-30T00:20:41;17.10;78.70
69895;DHT22;57172;52.034;5.090;2023-07-30T00:23:08;17.00;78.80
69895;DHT22;57172;52.034;5.090;2023-07-30T00:25:35;17.00;79.30
69895;DHT22;57172;52.034;5.090;2023-07-30T00:28:02;17.00;79.70
69895;DHT22;57172;52.034;5.090;2023-07-30T00:30:29;17.00;79.70
69895;DHT22;57172;52.034;5.090;2023-07-30T00:32:56;17.00;79.60
69895;DHT22;57172;52.034;5.090;2023-07-30T00:35:24;17.00;79.40
69895;DHT22;57172;52.034;5.090;2023-07-30T00:37:50;16.90;79.80
69895;DHT22;57172;52.034;5.090;2023-07-30T00:40:18;16.90;79.80
69895;DHT22;57172;52.034;5.090;2023-07-30T00:42:45;16.90;79.80
69895;DHT22;57172;52.034;5.090;2023-07-30T00:45:12;16.90;79.70
69895;DHT22;57172;52.034;5.090;2023-07-30T00:47:39;16.80;80.00
69895;DHT22;57172;52.034;5.090;2023-07-30T00:50:08;16.80;80.40
69895;DHT22;57172;52.034;5.090;2023-07-30T00:52:35;16.80;80.60
69895;DHT22;57172;52.034;5.090;2023-07-30T00:55:02;16.80;80.80
69895;DHT22;57172;52.034;5.090;2023-07-30T00:57:30;16.70;81.00
69895;DHT22;57172;52.034;5.090;2023-07-30T00:59:58;16.70;81.20
69895;DHT22;57172;52.034;5.090;2023-07-30T01:02:26;16.70;81.00
69895;DHT22;57172;52.034;5.090;2023-07-30T01:04:54;16.70;81.30
69895;DHT22;57172;52.034;5.090;2023-07-30T01:07:21;16.70;81.70
69895;DHT22;57172;52.034;5.090;2023-07-30T01:09:48;16.70;81.50
69895;DHT22;57172;52.034;5.090;2023-07-30T01:12:15;16.70;81.70
69895;DHT22;57172;52.034;5.090;2023-07-30T01:14:43;16.70;81.80
69895;DHT22;57172;52.034;5.090;2023-07-30T01:17:11;16.70;81.90
69895;DHT22;57172;52.034;5.090;2023-07-30T01:19:38;16.70;81.40
69895;DHT22;57172;52.034;5.090;2023-07-30T01:22:06;16.70;81.60
69895;DHT22;57172;52.034;5.090;2023-07-30T01:24:32;16.70;81.40
69895;DHT22;57172;52.034;5.090;2023-07-30T01:27:04;16.70;81.40
69895;DHT22;57172;52.034;5.090;2023-07-30T01:29:45;16.70;81.90
69895;DHT22;57172;52.034;5.090;2023-07-30T01:32:15;16.70;81.90
69895;DHT22;57172;52.034;5.090;2023-07-30T01:34:44;16.70;81.70
69895;DHT22;57172;52.034;5.090;2023-07-30T01:37:13;16.70;81.50
69895;DHT22;57172;52.034;5.090;2023-07-30T01:39:42;16.70;81.60
69895;DHT22;57172;52.034;5.090;2023-07-30T01:42:13;16.70;81.90
69895;DHT22;57172;52.034;5.090;2023-07-30T01:44:41;16.70;81.80
69895;DHT22;57172;52.034;5.090;2023-07-30T01:47:08;16.70;81.90
69895;DHT22;57172;52.034;5.090;2023-07-30T01:49:35;16.70;81.70
69895;DHT22;57172;52.034;5.090;2023-07-30T01:52:02;16.70;82.00
69895;DHT22;57172;52.034;5.090;2023-07-30T01:54:29;16.70;82.00
69895;DHT22;57172;52.034;5.090;2023-07-30T01:56:56;16.70;82.00
69895;DHT22;57172;52.034;5.090;2023-07-30T01:59:23;16.70;81.80
69895;DHT22;57172;52.034;5.090;2023-07-30T02:01:50;16.70;82.20
69895;DHT22;57172;52.034;5.090;2023-07-30T02:04:16;16.70;82.20
69895;DHT22;57172;52.034;5.090;2023-07-30T02:06:44;16.70;82.30
69895;DHT22;57172;52.034;5.090;2023-07-30T02:09:11;16.70;82.50
69895;DHT22;57172;52.034;5.090;2023-07-30T02:11:38;16.80;82.70
69895;DHT22;57172;52.034;5.090;2023-07-30T02:14:06;16.80;82.70
69895;DHT22;57172;52.034;5.090;2023-07-30T02:16:33;16.80;82.70
69895;DHT22;57172;52.034;5.090;2023-07-30T02:19:00;16.70;82.60
69895;DHT22;57172;52.034;5.090;2023-07-30T02:21:27;16.70;83.00
69895;DHT22;57172;52.034;5.090;2023-07-30T02:23:55;16.70;83.10
69895;DHT22;57172;52.034;5.090;2023-07-30T02:26:22;16.70;82.90
69895;DHT22;57172;52.034;5.090;2023-07-30T02:28:49;16.70;83.30
69895;DHT22;57172;52.034;5.090;2023-07-30T02:31:16;16.70;83.00
69895;DHT22;57172;52.034;5.090;2023-07-30T02:33:43;16.70;83.30
69895;DHT22;57172;52.034;5.090;2023-07-30T02:36:10;16.70;83.20
69895;DHT22;57172;52.034;5.090;2023-07-30T02:38:37;16.60;83.50
69895;DHT22;57172;52.034;5.090;2023-07-30T02:41:04;16.60;83.30
69895;DHT22;57172;52.034;5.090;2023-07-30T02:43:31;16.60;83.70
69895;DHT22;57172;52.034;5.090;2023-07-30T02:45:57;16.60;83.70
69895;DHT22;57172;52.034;5.090;2023-07-30T02:48:24;16.60;83.80
69895;DHT22;57172;52.034;5.090;2023-07-30T02:50:51;16.60;83.90
69895;DHT22;57172;52.034;5.090;2023-07-30T02:53:18;16.50;84.00
69895;DHT22;57172;52.034;5.090;2023-07-30T02:55:45;16.50;83.90
69895;DHT22;57172;52.034;5.090;2023-07-30T02:58:12;16.50;84.00
69895;DHT22;57172;52.034;5.090;2023-07-30T03:00:39;16.50;84.10
69895;DHT22;57172;52.034;5.090;2023-07-30T03:03:06;16.40;84.20
69895;DHT22;57172;52.034;5.090;2023-07-30T03:05:33;16.40;84.30
69895;DHT22;57172;52.034;5.090;2023-07-30T03:08:00;16.40;84.40
69895;DHT22;57172;52.034;5.090;2023-07-30T03:10:27;16.40;84.50
69895;DHT22;57172;52.034;5.090;2023-07-30T03:12:54;16.30;84.70
69895;DHT22;57172;52.034;5.090;2023-07-30T03:15:21;16.30;84.90
69895;DHT22;57172;52.034;5.090;2023-07-30T03:17:48;16.30;85.00
69895;DHT22;57172;52.034;5.090;2023-07-30T03:20:15;16.30;85.00
69895;DHT22;57172;52.034;5.090;2023-07-30T03:22:42;16.20;85.30
69895;DHT22;57172;52.034;5.090;2023-07-30T03:25:08;16.20;85.40
69895;DHT22;57172;52.034;5.090;2023-07-30T03:27:35;16.20;85.60
69895;DHT22;57172;52.034;5.090;2023-07-30T03:30:03;16.20;85.80
69895;DHT22;57172;52.034;5.090;2023-07-30T03:32:31;16.10;86.00
69895;DHT22;57172;52.034;5.090;2023-07-30T03:34:58;16.10;86.20
69895;DHT22;57172;52.034;5.090;2023-07-30T03:37:25;16.10;86.50
69895;DHT22;57172;52.034;5.090;2023-07-30T03:39:53;16.20;86.60
69895;DHT22;57172;52.034;5.090;2023-07-30T03:42:20;16.20;86.60
69895;DHT22;57172;52.034;5.090;2023-07-30T03:44:47;16.20;86.60
69895;DHT22;57172;52.034;5.090;2023-07-30T03:47:14;16.20;86.70
69895;DHT22;57172;52.034;5.090;2023-07-30T03:49:41;16.20;86.70
69895;DHT22;57172;52.034;5.090;2023-07-30T03:52:08;16.20;87.00
69895;DHT22;57172;52.034;5.090;2023-07-30T03:54:35;16.20;87.10
69895;DHT22;57172;52.034;5.090;2023-07-30T03:57:02;16.20;87.20
69895;DHT22;57172;52.034;5.090;2023-07-30T03:59:29;16.20;87.30
69895;DHT22;57172;52.034;5.090;2023-07-30T04:01:56;16.20;87.40
69895;DHT22;57172;52.034;5.090;2023-07-30T04:04:24;16.20;87.60
69895;DHT22;57172;52.034;5.090;2023-07-30T04:06:51;16.20;87.80
69895;DHT22;57172;52.034;5.090;2023-07-30T04:09:18;16.20;87.80
69895;DHT22;57172;52.034;5.090;2023-07-30T04:11:45;16.30;87.90
69895;DHT22;57172;52.034;5.090;2023-07-30T04:14:12;16.30;88.00
69895;DHT22;57172;52.034;5.090;2023-07-30T04:16:39;16.30;88.20
69895;DHT22;57172;52.034;5.090;2023-07-30T04:19:07;16.30;88.30
69895;DHT22;57172;52.034;5.090;2023-07-30T04:21:34;16.40;88.50
69895;DHT22;57172;52.034;5.090;2023-07-30T04:24:01;16.40;88.50
69895;DHT22;57172;52.034;5.090;2023-07-30T04:26:28;16.40;88.60
69895;DHT22;57172;52.034;5.090;2023-07-30T04:28:55;16.40;88.50
69895;DHT22;57172;52.034;5.090;2023-07-30T04:31:22;16.50;88.60
69895;DHT22;57172;52.034;5.090;2023-07-30T04:33:49;16.50;88.70
69895;DHT22;57172;52.034;5.090;2023-07-30T04:36:16;16.50;88.70
69895;DHT22;57172;52.034;5.090;2023-07-30T04:38:46;16.60;88.70
69895;DHT22;57172;52.034;5.090;2023-07-30T04:41:13;16.60;88.60
69895;DHT22;57172;52.034;5.090;2023-07-30T04:43:45;16.60;88.60
69895;DHT22;57172;52.034;5.090;2023-07-30T04:46:13;16.60;88.60
69895;DHT22;57172;52.034;5.090;2023-07-30T04:48:40;16.60;88.70
69895;DHT22;57172;52.034;5.090;2023-07-30T04:51:08;16.60;88.70
69895;DHT22;57172;52.034;5.090;2023-07-30T04:53:35;16.60;88.80
69895;DHT22;57172;52.034;5.090;2023-07-30T04:56:02;16.70;88.90
69895;DHT22;57172;52.034;5.090;2023-07-30T04:58:29;16.70;89.10
69895;DHT22;57172;52.034;5.090;2023-07-30T05:00:56;16.80;89.20
69895;DHT22;57172;52.034;5.090;2023-07-30T05:03:23;16.80;89.50
69895;DHT22;57172;52.034;5.090;2023-07-30T05:05:50;16.80;89.30
69895;DHT22;57172;52.034;5.090;2023-07-30T05:08:16;16.90;89.40
69895;DHT22;57172;52.034;5.090;2023-07-30T05:10:43;16.90;89.20
69895;DHT22;57172;52.034;5.090;2023-07-30T05:13:10;17.00;89.30
69895;DHT22;57172;52.034;5.090;2023-07-30T05:15:39;17.00;89.50
69895;DHT22;57172;52.034;5.090;2023-07-30T05:18:06;17.10;89.30
69895;DHT22;57172;52.034;5.090;2023-07-30T05:20:33;17.10;89.10
69895;DHT22;57172;52.034;5.090;2023-07-30T05:23:00;17.20;89.50
69895;DHT22;57172;52.034;5.090;2023-07-30T05:25:28;17.20;89.40
69895;DHT22;57172;52.034;5.090;2023-07-30T05:27:56;17.30;88.90
69895;DHT22;57172;52.034;5.090;2023-07-30T05:30:23;17.30;88.60
69895;DHT22;57172;52.034;5.090;2023-07-30T05:32:50;17.30;88.80
69895;DHT22;57172;52.034;5.090;2023-07-30T05:35:17;17.40;88.80
69895;DHT22;57172;52.034;5.090;2023-07-30T05:37:45;17.30;88.50
69895;DHT22;57172;52.034;5.090;2023-07-30T05:40:12;17.40;88.80
69895;DHT22;57172;52.034;5.090;2023-07-30T05:42:39;17.40;88.60
69895;DHT22;57172;52.034;5.090;2023-07-30T05:45:07;17.50;88.80
69895;DHT22;57172;52.034;5.090;2023-07-30T05:47:34;17.50;88.60
69895;DHT22;57172;52.034;5.090;2023-07-30T05:50:02;17.50;88.40
69895;DHT22;57172;52.034;5.090;2023-07-30T05:52:29;17.60;88.90
69895;DHT22;57172;52.034;5.090;2023-07-30T05:54:56;17.60;88.30
69895;DHT22;57172;52.034;5.090;2023-07-30T05:57:23;17.60;88.10
69895;DHT22;57172;52.034;5.090;2023-07-30T05:59:50;17.60;88.30
69895;DHT22;57172;52.034;5.090;2023-07-30T06:02:17;17.70;88.10
69895;DHT22;57172;52.034;5.090;2023-07-30T06:04:44;17.60;87.50
69895;DHT22;57172;52.034;5.090;2023-07-30T06:07:11;17.70;87.90
69895;DHT22;57172;52.034;5.090;2023-07-30T06:09:38;17.70;87.90
69895;DHT22;57172;52.034;5.090;2023-07-30T06:12:05;17.70;87.40
69895;DHT22;57172;52.034;5.090;2023-07-30T06:14:32;17.80;87.30
69895;DHT22;57172;52.034;5.090;2023-07-30T06:16:59;17.80;87.50
69895;DHT22;57172;52.034;5.090;2023-07-30T06:19:27;17.80;87.30
69895;DHT22;57172;52.034;5.090;2023-07-30T06:21:54;17.90;86.90
69895;DHT22;57172;52.034;5.090;2023-07-30T06:24:21;17.90;86.60
69895;DHT22;57172;52.034;5.090;2023-07-30T06:26:48;17.90;86.50
69895;DHT22;57172;52.034;5.090;2023-07-30T06:29:15;18.00;86.60
69895;DHT22;57172;52.034;5.090;2023-07-30T06:31:42;18.00;87.20
69895;DHT22;57172;52.034;5.090;2023-07-30T06:34:09;18.20;87.20
69895;DHT22;57172;52.034;5.090;2023-07-30T06:36:36;18.30;86.50
69895;DHT22;57172;52.034;5.090;2023-07-30T06:39:03;18.30;86.10
69895;DHT22;57172;52.034;5.090;2023-07-30T06:41:30;18.40;86.00
69895;DHT22;57172;52.034;5.090;2023-07-30T06:43:57;18.50;86.20
69895;DHT22;57172;52.034;5.090;2023-07-30T06:46:24;18.50;85.80
69895;DHT22;57172;52.034;5.090;2023-07-30T06:48:51;18.60;84.70
69895;DHT22;57172;52.034;5.090;2023-07-30T06:51:19;18.50;83.20
69895;DHT22;57172;52.034;5.090;2023-07-30T06:53:46;18.50;83.20
69895;DHT22;57172;52.034;5.090;2023-07-30T06:56:13;18.40;83.00
69895;DHT22;57172;52.034;5.090;2023-07-30T06:58:40;18.30;82.50
69895;DHT22;57172;52.034;5.090;2023-07-30T07:01:07;18.30;82.50
69895;DHT22;57172;52.034;5.090;2023-07-30T07:03:34;18.30;82.50
69895;DHT22;57172;52.034;5.090;2023-07-30T07:06:01;18.20;82.20
69895;DHT22;57172;52.034;5.090;2023-07-30T07:08:28;18.20;82.20
69895;DHT22;57172;52.034;5.090;2023-07-30T07:10:55;18.20;82.10
69895;DHT22;57172;52.034;5.090;2023-07-30T07:13:22;18.20;82.30
69895;DHT22;57172;52.034;5.090;2023-07-30T07:15:48;18.30;82.20
69895;DHT22;57172;52.034;5.090;2023-07-30T07:18:15;18.30;82.10
69895;DHT22;57172;52.034;5.090;2023-07-30T07:20:42;18.40;81.80
69895;DHT22;57172;52.034;5.090;2023-07-30T07:23:09;18.40;81.60
69895;DHT22;57172;52.034;5.090;2023-07-30T07:25:39;18.40;81.60
69895;DHT22;57172;52.034;5.090;2023-07-30T07:28:06;18.40;80.90
69895;DHT22;57172;52.034;5.090;2023-07-30T07:30:35;18.40;80.80
69895;DHT22;57172;52.034;5.090;2023-07-30T07:33:03;18.50;80.70
69895;DHT22;57172;52.034;5.090;2023-07-30T07:35:32;18.40;80.90
69895;DHT22;57172;52.034;5.090;2023-07-30T07:37:59;18.40;81.00
69895;DHT22;57172;52.034;5.090;2023-07-30T07:40:26;18.50;81.00
69895;DHT22;57172;52.034;5.090;2023-07-30T07:42:54;18.60;81.70
69895;DHT22;57172;52.034;5.090;2023-07-30T07:45:21;18.70;82.00
69895;DHT22;57172;52.034;5.090;2023-07-30T07:47:48;18.90;81.30
69895;DHT22;57172;52.034;5.090;2023-07-30T07:50:15;19.00;80.20
69895;DHT22;57172;52.034;5.090;2023-07-30T07:52:42;19.10;79.20
69895;DHT22;57172;52.034;5.090;2023-07-30T07:55:09;19.20;79.90
69895;DHT22;57172;52.034;5.090;2023-07-30T07:57:36;19.40;79.60
69895;DHT22;57172;52.034;5.090;2023-07-30T08:00:05;19.50;78.30
69895;DHT22;57172;52.034;5.090;2023-07-30T08:02:37;19.70;76.30
69895;DHT22;57172;52.034;5.090;2023-07-30T08:05:04;19.80;75.90
69895;DHT22;57172;52.034;5.090;2023-07-30T08:07:31;19.90;76.10
69895;DHT22;57172;52.034;5.090;2023-07-30T08:09:58;19.90;74.90
69895;DHT22;57172;52.034;5.090;2023-07-30T08:12:25;19.90;75.50
69895;DHT22;57172;52.034;5.090;2023-07-30T08:14:52;20.00;75.50
69895;DHT22;57172;52.034;5.090;2023-07-30T08:17:19;20.20;73.50
69895;DHT22;57172;52.034;5.090;2023-07-30T08:19:47;20.20;73.70
69895;DHT22;57172;52.034;5.090;2023-07-30T08:22:14;20.30;74.20
69895;DHT22;57172;52.034;5.090;2023-07-30T08:24:41;20.40;72.30
69895;DHT22;57172;52.034;5.090;2023-07-30T08:27:08;20.30;71.30
69895;DHT22;57172;52.034;5.090;2023-07-30T08:29:35;20.20;71.80
69895;DHT22;57172;52.034;5.090;2023-07-30T08:32:05;20.20;71.10
69895;DHT22;57172;52.034;5.090;2023-07-30T08:34:32;20.10;71.80
69895;DHT22;57172;52.034;5.090;2023-07-30T08:37:00;20.10;71.90
69895;DHT22;57172;52.034;5.090;2023-07-30T08:39:26;20.10;71.70
69895;DHT22;57172;52.034;5.090;2023-07-30T08:41:54;20.10;72.50
69895;DHT22;57172;52.034;5.090;2023-07-30T08:44:20;20.20;72.10
69895;DHT22;57172;52.034;5.090;2023-07-30T08:46:47;20.30;71.80
69895;DHT22;57172;52.034;5.090;2023-07-30T08:49:14;20.20;71.00
69895;DHT22;57172;52.034;5.090;2023-07-30T08:51:41;20.20;70.10
69895;DHT22;57172;52.034;5.090;2023-07-30T08:54:10;20.10;69.80
69895;DHT22;57172;52.034;5.090;2023-07-30T08:56:38;20.20;70.40
69895;DHT22;57172;52.034;5.090;2023-07-30T08:59:05;20.20;70.20
69895;DHT22;57172;52.034;5.090;2023-07-30T09:01:37;20.30;70.10
69895;DHT22;57172;52.034;5.090;2023-07-30T09:04:06;20.30;69.70
69895;DHT22;57172;52.034;5.090;2023-07-30T09:06:33;20.30;69.70
69895;DHT22;57172;52.034;5.090;2023-07-30T09:09:01;20.30;68.80
69895;DHT22;57172;52.034;5.090;2023-07-30T09:11:29;20.30;69.40
69895;DHT22;57172;52.034;5.090;2023-07-30T09:13:56;20.20;69.10
69895;DHT22;57172;52.034;5.090;2023-07-30T09:16:26;20.20;70.20
69895;DHT22;57172;52.034;5.090;2023-07-30T09:18:54;20.60;73.50
69895;DHT22;57172;52.034;5.090;2023-07-30T09:21:31;21.10;71.20
69895;DHT22;57172;52.034;5.090;2023-07-30T09:24:02;21.40;69.20
69895;DHT22;57172;52.034;5.090;2023-07-30T09:26:47;21.50;67.90
69895;DHT22;57172;52.034;5.090;2023-07-30T09:29:14;21.60;67.70
69895;DHT22;57172;52.034;5.090;2023-07-30T09:31:49;21.80;67.70
69895;DHT22;57172;52.034;5.090;2023-07-30T09:34:24;22.00;67.10
69895;DHT22;57172;52.034;5.090;2023-07-30T09:36:53;22.00;65.90
69895;DHT22;57172;52.034;5.090;2023-07-30T09:39:22;22.00;65.70
69895;DHT22;57172;52.034;5.090;2023-07-30T09:41:50;22.00;65.50
69895;DHT22;57172;52.034;5.090;2023-07-30T09:44:19;22.30;66.90
69895;DHT22;57172;52.034;5.090;2023-07-30T09:46:48;22.70;65.20
69895;DHT22;57172;52.034;5.090;2023-07-30T09:49:17;22.70;61.80
69895;DHT22;57172;52.034;5.090;2023-07-30T09:51:44;22.40;61.40
69895;DHT22;57172;52.034;5.090;2023-07-30T09:54:14;22.10;60.40
69895;DHT22;57172;52.034;5.090;2023-07-30T09:56:42;21.90;62.90
69895;DHT22;57172;52.034;5.090;2023-07-30T09:59:10;22.40;64.30
69895;DHT22;57172;52.034;5.090;2023-07-30T10:01:45;22.90;64.20
69895;DHT22;57172;52.034;5.090;2023-07-30T10:04:13;23.30;61.70
69895;DHT22;57172;52.034;5.090;2023-07-30T10:09:17;23.70;58.60
69895;DHT22;57172;52.034;5.090;2023-07-30T10:11:48;24.10;57.20
69895;DHT22;57172;52.034;5.090;2023-07-30T10:14:22;24.50;54.70
69895;DHT22;57172;52.034;5.090;2023-07-30T10:16:52;24.90;55.10
69895;DHT22;57172;52.034;5.090;2023-07-30T10:19:27;25.10;51.10
69895;DHT22;57172;52.034;5.090;2023-07-30T10:24:38;24.80;51.30
69895;DHT22;57172;52.034;5.090;2023-07-30T10:27:06;24.60;51.80
69895;DHT22;57172;52.034;5.090;2023-07-30T10:29:36;24.40;50.70
69895;DHT22;57172;52.034;5.090;2023-07-30T10:32:08;24.00;50.80
69895;DHT22;57172;52.034;5.090;2023-07-30T10:34:46;23.60;52.10
69895;DHT22;57172;52.034;5.090;2023-07-30T10:37:24;23.60;53.20
69895;DHT22;57172;52.034;5.090;2023-07-30T10:39:52;23.80;54.10
69895;DHT22;57172;52.034;5.090;2023-07-30T10:42:19;24.30;55.30
69895;DHT22;57172;52.034;5.090;2023-07-30T10:44:47;24.80;52.80
69895;DHT22;57172;52.034;5.090;2023-07-30T10:47:15;24.80;50.70
69895;DHT22;57172;52.034;5.090;2023-07-30T10:50:02;24.50;50.10
69895;DHT22;57172;52.034;5.090;2023-07-30T10:52:30;24.10;50.00
69895;DHT22;57172;52.034;5.090;2023-07-30T10:55:01;23.70;50.80
69895;DHT22;57172;52.034;5.090;2023-07-30T10:57:31;23.50;51.60
69895;DHT22;57172;52.034;5.090;2023-07-30T10:59:59;23.40;51.90
69895;DHT22;57172;52.034;5.090;2023-07-30T11:02:28;23.20;52.40
69895;DHT22;57172;52.034;5.090;2023-07-30T11:04:55;23.30;52.70
69895;DHT22;57172;52.034;5.090;2023-07-30T11:07:22;23.50;53.60
69895;DHT22;57172;52.034;5.090;2023-07-30T11:09:59;23.80;53.50
69895;DHT22;57172;52.034;5.090;2023-07-30T11:12:29;24.10;52.10
69895;DHT22;57172;52.034;5.090;2023-07-30T11:15:03;24.10;50.90
69895;DHT22;57172;52.034;5.090;2023-07-30T11:17:30;23.80;50.50
69895;DHT22;57172;52.034;5.090;2023-07-30T11:19:57;23.70;51.40
69895;DHT22;57172;52.034;5.090;2023-07-30T11:22:35;23.80;51.40
69895;DHT22;57172;52.034;5.090;2023-07-30T11:25:02;23.90;51.00
69895;DHT22;57172;52.034;5.090;2023-07-30T11:27:48;24.20;51.00
69895;DHT22;57172;52.034;5.090;2023-07-30T11:30:15;24.30;50.90
69895;DHT22;57172;52.034;5.090;2023-07-30T11:32:42;24.20;50.50
69895;DHT22;57172;52.034;5.090;2023-07-30T11:35:12;24.20;50.90
69895;DHT22;57172;52.034;5.090;2023-07-30T11:37:40;24.10;51.10
69895;DHT22;57172;52.034;5.090;2023-07-30T11:40:10;24.00;51.10
69895;DHT22;57172;52.034;5.090;2023-07-30T11:42:39;23.90;51.50
69895;DHT22;57172;52.034;5.090;2023-07-30T11:45:22;24.00;52.10
69895;DHT22;57172;52.034;5.090;2023-07-30T11:47:50;24.30;52.20
69895;DHT22;57172;52.034;5.090;2023-07-30T11:50:17;24.70;51.70
69895;DHT22;57172;52.034;5.090;2023-07-30T11:52:55;24.80;50.40
69895;DHT22;57172;52.034;5.090;2023-07-30T11:55:23;25.10;51.70
69895;DHT22;57172;52.034;5.090;2023-07-30T11:57:51;25.60;49.70
69895;DHT22;57172;52.034;5.090;2023-07-30T12:00:21;25.70;48.90
69895;DHT22;57172;52.034;5.090;2023-07-30T12:02:48;25.60;48.70
69895;DHT22;57172;52.034;5.090;2023-07-30T12:05:16;25.60;49.50
69895;DHT22;57172;52.034;5.090;2023-07-30T12:07:47;25.80;49.30
69895;DHT22;57172;52.034;5.090;2023-07-30T12:10:14;26.20;50.50
69895;DHT22;57172;52.034;5.090;2023-07-30T12:12:47;26.60;48.30
69895;DHT22;57172;52.034;5.090;2023-07-30T12:15:19;26.80;47.60
69895;DHT22;57172;52.034;5.090;2023-07-30T12:17:46;27.20;48.50
69895;DHT22;57172;52.034;5.090;2023-07-30T12:20:13;27.70;46.20
69895;DHT22;57172;52.034;5.090;2023-07-30T12:22:40;27.90;45.40
69895;DHT22;57172;52.034;5.090;2023-07-30T12:25:09;27.90;44.60
69895;DHT22;57172;52.034;5.090;2023-07-30T12:27:37;27.70;44.50
69895;DHT22;57172;52.034;5.090;2023-07-30T12:30:05;27.30;44.30
69895;DHT22;57172;52.034;5.090;2023-07-30T12:32:32;26.70;44.80
69895;DHT22;57172;52.034;5.090;2023-07-30T12:34:59;26.20;46.00
69895;DHT22;57172;52.034;5.090;2023-07-30T12:37:26;25.80;46.70
69895;DHT22;57172;52.034;5.090;2023-07-30T12:39:53;25.60;47.80
69895;DHT22;57172;52.034;5.090;2023-07-30T12:42:20;25.80;48.80
69895;DHT22;57172;52.034;5.090;2023-07-30T12:44:47;26.20;48.70
69895;DHT22;57172;52.034;5.090;2023-07-30T12:47:14;26.60;48.20
69895;DHT22;57172;52.034;5.090;2023-07-30T12:49:42;27.10;47.70
69895;DHT22;57172;52.034;5.090;2023-07-30T12:52:09;27.50;46.70
69895;DHT22;57172;52.034;5.090;2023-07-30T12:54:36;27.70;45.90
69895;DHT22;57172;52.034;5.090;2023-07-30T12:57:03;27.70;44.60
69895;DHT22;57172;52.034;5.090;2023-07-30T12:59:30;27.70;44.70
69895;DHT22;57172;52.034;5.090;2023-07-30T13:01:58;27.60;43.90
69895;DHT22;57172;52.034;5.090;2023-07-30T13:04:25;27.70;43.60
69895;DHT22;57172;52.034;5.090;2023-07-30T13:06:55;27.80;42.80
69895;DHT22;57172;52.034;5.090;2023-07-30T13:09:22;27.80;42.70
69895;DHT22;57172;52.034;5.090;2023-07-30T13:11:48;27.50;41.80
69895;DHT22;57172;52.034;5.090;2023-07-30T13:14:15;27.00;42.20
69895;DHT22;57172;52.034;5.090;2023-07-30T13:16:42;26.50;42.70
69895;DHT22;57172;52.034;5.090;2023-07-30T13:19:10;25.90;43.30
69895;DHT22;57172;52.034;5.090;2023-07-30T13:21:37;25.60;44.60
69895;DHT22;57172;52.034;5.090;2023-07-30T13:24:05;25.20;45.00
69895;DHT22;57172;52.034;5.090;2023-07-30T13:26:32;24.90;45.40
69895;DHT22;57172;52.034;5.090;2023-07-30T13:28:59;24.60;45.80
69895;DHT22;57172;52.034;5.090;2023-07-30T13:31:26;24.30;46.10
69895;DHT22;57172;52.034;5.090;2023-07-30T13:33:53;24.00;46.70
69895;DHT22;57172;52.034;5.090;2023-07-30T13:36:20;23.90;47.50
69895;DHT22;57172;52.034;5.090;2023-07-30T13:38:47;23.90;47.60
69895;DHT22;57172;52.034;5.090;2023-07-30T13:41:14;23.90;48.00
69895;DHT22;57172;52.034;5.090;2023-07-30T13:43:41;23.90;48.20
69895;DHT22;57172;52.034;5.090;2023-07-30T13:46:08;23.90;47.90
69895;DHT22;57172;52.034;5.090;2023-07-30T13:48:35;23.90;48.00
69895;DHT22;57172;52.034;5.090;2023-07-30T13:51:02;24.00;49.00
69895;DHT22;57172;52.034;5.090;2023-07-30T13:53:30;24.20;48.60
69895;DHT22;57172;52.034;5.090;2023-07-30T13:55:57;24.20;48.10
69895;DHT22;57172;52.034;5.090;2023-07-30T13:58:24;24.20;48.70
69895;DHT22;57172;52.034;5.090;2023-07-30T14:00:53;24.30;48.90
69895;DHT22;57172;52.034;5.090;2023-07-30T14:03:22;24.40;49.10
69895;DHT22;57172;52.034;5.090;2023-07-30T14:05:49;24.30;49.30
69895;DHT22;57172;52.034;5.090;2023-07-30T14:08:16;24.30;49.10
69895;DHT22;57172;52.034;5.090;2023-07-30T14:10:42;24.20;49.30
69895;DHT22;57172;52.034;5.090;2023-07-30T14:13:09;23.90;49.50
69895;DHT22;57172;52.034;5.090;2023-07-30T14:15:36;23.70;49.60
69895;DHT22;57172;52.034;5.090;2023-07-30T14:18:03;23.40;49.80
69895;DHT22;57172;52.034;5.090;2023-07-30T14:20:30;23.10;50.10
69895;DHT22;57172;52.034;5.090;2023-07-30T14:22:58;22.90;50.80
69895;DHT22;57172;52.034;5.090;2023-07-30T14:25:28;22.60;52.40
69895;DHT22;57172;52.034;5.090;2023-07-30T14:27:55;22.50;53.10
69895;DHT22;57172;52.034;5.090;2023-07-30T14:30:22;22.40;53.90
69895;DHT22;57172;52.034;5.090;2023-07-30T14:32:49;22.40;54.40
69895;DHT22;57172;52.034;5.090;2023-07-30T14:35:16;22.60;54.80
69895;DHT22;57172;52.034;5.090;2023-07-30T14:37:43;22.80;53.60
69895;DHT22;57172;52.034;5.090;2023-07-30T14:40:11;23.00;52.10
69895;DHT22;57172;52.034;5.090;2023-07-30T14:42:38;23.30;51.80
69895;DHT22;57172;52.034;5.090;2023-07-30T14:45:07;23.60;51.50
69895;DHT22;57172;52.034;5.090;2023-07-30T14:47:34;23.70;49.20
69895;DHT22;57172;52.034;5.090;2023-07-30T14:50:01;23.50;49.20
69895;DHT22;57172;52.034;5.090;2023-07-30T14:52:29;23.30;49.80
69895;DHT22;57172;52.034;5.090;2023-07-30T14:54:56;23.00;50.60
69895;DHT22;57172;52.034;5.090;2023-07-30T14:57:23;22.90;51.50
69895;DHT22;57172;52.034;5.090;2023-07-30T14:59:50;22.90;51.50
69895;DHT22;57172;52.034;5.090;2023-07-30T15:02:18;22.90;51.40
69895;DHT22;57172;52.034;5.090;2023-07-30T15:04:45;22.80;51.60
69895;DHT22;57172;52.034;5.090;2023-07-30T15:07:12;22.90;51.50
69895;DHT22;57172;52.034;5.090;2023-07-30T15:09:39;23.00;51.40
69895;DHT22;57172;52.034;5.090;2023-07-30T15:12:07;23.00;50.90
69895;DHT22;57172;52.034;5.090;2023-07-30T15:14:35;22.90;50.60
69895;DHT22;57172;52.034;5.090;2023-07-30T15:17:03;22.80;50.90
69895;DHT22;57172;52.034;5.090;2023-07-30T15:19:30;22.80;51.20
69895;DHT22;57172;52.034;5.090;2023-07-30T15:21:57;22.70;51.20
69895;DHT22;57172;52.034;5.090;2023-07-30T15:24:24;22.70;51.50
69895;DHT22;57172;52.034;5.090;2023-07-30T15:26:51;22.80;51.10
69895;DHT22;57172;52.034;5.090;2023-07-30T15:29:18;22.70;50.80
69895;DHT22;57172;52.034;5.090;2023-07-30T15:31:45;22.70;51.10
69895;DHT22;57172;52.034;5.090;2023-07-30T15:34:12;22.70;51.10
69895;DHT22;57172;52.034;5.090;2023-07-30T15:36:41;22.70;51.10
69895;DHT22;57172;52.034;5.090;2023-07-30T15:39:08;22.60;51.50